KDEW

Details ICAO KDEW
Name DEER PARK
Region United States
Timezone America/Los_Angeles (UTC-7.0)
Plans Departing 3
Arriving 2
Stats Elevation 2,210 ft / 674 m (AMSL)
Location 47.966403° -117.427306°
Runways 2
Magnetic Variation 14.573° E
Sunrise 2018-05-21 12:05:21 UTC / 2018-05-21 05:05:21 Local
Sunset 2018-05-22 03:30:09 UTC / 2018-05-21 20:30:09 Local
Advertisement - Login to hide

Runways

ID Width Length Bearing (true) Bearing (mag) Surface Threshold Offset Overrun Length
04 60 ft / 18 m 3,194 ft / 973 m 61.21° 46.64° Asphalt 0 ft / 0 m 0 ft / 0 m
16 75 ft / 23 m 6,101 ft / 1,860 m 179.81° 165.24° Asphalt 0 ft / 0 m 0 ft / 0 m
22 60 ft / 18 m 3,194 ft / 973 m 241.22° 226.65° Asphalt 0 ft / 0 m 0 ft / 0 m
34 75 ft / 23 m 6,101 ft / 1,860 m 359.81° 345.24° Asphalt 0 ft / 0 m 0 ft / 0 m

Map

Weather


0- 5 10 15 20 25 30 35+ Temperature / ° C

Clouds and Precipitation
Forecast for 2018-05-21 18:00 UTC. Updated 2 hours ago

Ground ~20,000 ft ~40,000 ft Winds

METAR

KDEW 211853Z AUTO VRB03KT 10SM CLR 22/11 A2996 RMK AO2 LTG DSNT E SLP136 T02220106

TAF

Not found

Frequencies

Recorded 135.17 MHz ASOS
Approach 123.75 MHz SPOKANE APP/DEP
Unicom 123.00 MHz CTAF/UNICOM
Warning: Do not use this data for real-world aviation or navigation. No guarantee of current accuracy is given.